sensor_id;sensor_type;location;lat;lon;timestamp;P1;durP1;ratioP1;P2;durP2;ratioP2
44704;SDS011;30431;48.520;9.046;2023-04-25T00:01:03;5.70;;;3.60;;
44704;SDS011;30431;48.520;9.046;2023-04-25T00:03:31;5.25;;;3.90;;
44704;SDS011;30431;48.520;9.046;2023-04-25T00:05:59;6.68;;;3.85;;
44704;SDS011;30431;48.520;9.046;2023-04-25T00:08:29;4.55;;;3.53;;
44704;SDS011;30431;48.520;9.046;2023-04-25T00:15:52;5.15;;;3.67;;
44704;SDS011;30431;48.520;9.046;2023-04-25T00:18:19;10.07;;;3.65;;
44704;SDS011;30431;48.520;9.046;2023-04-25T00:20:46;6.15;;;3.30;;
44704;SDS011;30431;48.520;9.046;2023-04-25T00:23:16;5.45;;;3.50;;
44704;SDS011;30431;48.520;9.046;2023-04-25T00:25:47;5.72;;;3.58;;
44704;SDS011;30431;48.520;9.046;2023-04-25T00:28:17;4.65;;;3.28;;
44704;SDS011;30431;48.520;9.046;2023-04-25T00:30:47;6.80;;;3.78;;
44704;SDS011;30431;48.520;9.046;2023-04-25T00:33:14;6.40;;;3.60;;
44704;SDS011;30431;48.520;9.046;2023-04-25T00:35:41;7.75;;;3.65;;
44704;SDS011;30431;48.520;9.046;2023-04-25T00:38:08;5.93;;;3.10;;
44704;SDS011;30431;48.520;9.046;2023-04-25T00:40:38;6.25;;;3.40;;
44704;SDS011;30431;48.520;9.046;2023-04-25T00:43:12;6.28;;;3.72;;
44704;SDS011;30431;48.520;9.046;2023-04-25T00:45:39;6.10;;;3.80;;
44704;SDS011;30431;48.520;9.046;2023-04-25T00:50:38;5.55;;;3.60;;
44704;SDS011;30431;48.520;9.046;2023-04-25T00:53:05;8.48;;;3.60;;
44704;SDS011;30431;48.520;9.046;2023-04-25T00:55:33;5.38;;;3.28;;
44704;SDS011;30431;48.520;9.046;2023-04-25T00:58:02;5.13;;;3.50;;
44704;SDS011;30431;48.520;9.046;2023-04-25T01:00:31;8.35;;;3.75;;
44704;SDS011;30431;48.520;9.046;2023-04-25T01:02:58;6.88;;;3.53;;
44704;SDS011;30431;48.520;9.046;2023-04-25T01:05:26;6.78;;;3.50;;
44704;SDS011;30431;48.520;9.046;2023-04-25T01:07:53;7.18;;;3.75;;
44704;SDS011;30431;48.520;9.046;2023-04-25T01:10:22;6.25;;;3.70;;
44704;SDS011;30431;48.520;9.046;2023-04-25T01:12:50;11.48;;;3.80;;
44704;SDS011;30431;48.520;9.046;2023-04-25T01:15:17;7.40;;;4.50;;
44704;SDS011;30431;48.520;9.046;2023-04-25T01:17:44;6.60;;;4.32;;
44704;SDS011;30431;48.520;9.046;2023-04-25T01:20:11;8.98;;;4.80;;
44704;SDS011;30431;48.520;9.046;2023-04-25T01:22:41;8.05;;;5.05;;
44704;SDS011;30431;48.520;9.046;2023-04-25T01:25:08;8.38;;;4.47;;
44704;SDS011;30431;48.520;9.046;2023-04-25T01:27:39;9.30;;;5.32;;
44704;SDS011;30431;48.520;9.046;2023-04-25T01:30:06;7.90;;;4.10;;
44704;SDS011;30431;48.520;9.046;2023-04-25T01:32:34;8.00;;;4.13;;
44704;SDS011;30431;48.520;9.046;2023-04-25T01:35:05;5.95;;;4.10;;
44704;SDS011;30431;48.520;9.046;2023-04-25T01:37:37;5.82;;;3.80;;
44704;SDS011;30431;48.520;9.046;2023-04-25T01:40:10;9.02;;;5.18;;
44704;SDS011;30431;48.520;9.046;2023-04-25T01:42:39;9.85;;;5.15;;
44704;SDS011;30431;48.520;9.046;2023-04-25T01:45:09;12.35;;;5.28;;
44704;SDS011;30431;48.520;9.046;2023-04-25T01:47:37;9.27;;;5.90;;
44704;SDS011;30431;48.520;9.046;2023-04-25T01:50:07;8.82;;;5.40;;
44704;SDS011;30431;48.520;9.046;2023-04-25T01:52:36;11.45;;;6.15;;
44704;SDS011;30431;48.520;9.046;2023-04-25T01:55:03;8.48;;;4.32;;
44704;SDS011;30431;48.520;9.046;2023-04-25T01:57:33;6.95;;;4.22;;
44704;SDS011;30431;48.520;9.046;2023-04-25T02:00:00;11.32;;;6.03;;
44704;SDS011;30431;48.520;9.046;2023-04-25T02:02:39;10.75;;;5.75;;
44704;SDS011;30431;48.520;9.046;2023-04-25T02:05:19;14.35;;;7.70;;
44704;SDS011;30431;48.520;9.046;2023-04-25T02:07:48;14.13;;;7.80;;
44704;SDS011;30431;48.520;9.046;2023-04-25T02:10:15;7.72;;;5.10;;
44704;SDS011;30431;48.520;9.046;2023-04-25T02:13:08;8.98;;;5.85;;
44704;SDS011;30431;48.520;9.046;2023-04-25T02:15:52;12.07;;;6.80;;
44704;SDS011;30431;48.520;9.046;2023-04-25T02:18:22;11.38;;;5.43;;
44704;SDS011;30431;48.520;9.046;2023-04-25T02:20:49;7.15;;;4.68;;
44704;SDS011;30431;48.520;9.046;2023-04-25T02:23:16;10.88;;;4.57;;
44704;SDS011;30431;48.520;9.046;2023-04-25T02:25:45;9.93;;;4.85;;
44704;SDS011;30431;48.520;9.046;2023-04-25T02:28:12;10.18;;;4.10;;
44704;SDS011;30431;48.520;9.046;2023-04-25T02:30:41;8.35;;;4.15;;
44704;SDS011;30431;48.520;9.046;2023-04-25T02:33:08;16.65;;;9.63;;
44704;SDS011;30431;48.520;9.046;2023-04-25T02:35:38;16.55;;;7.78;;
44704;SDS011;30431;48.520;9.046;2023-04-25T02:38:04;18.77;;;8.50;;
44704;SDS011;30431;48.520;9.046;2023-04-25T02:40:33;11.32;;;6.82;;
44704;SDS011;30431;48.520;9.046;2023-04-25T02:43:00;9.55;;;5.25;;
44704;SDS011;30431;48.520;9.046;2023-04-25T02:45:30;7.78;;;4.03;;
44704;SDS011;30431;48.520;9.046;2023-04-25T02:47:57;6.70;;;4.25;;
44704;SDS011;30431;48.520;9.046;2023-04-25T02:50:24;14.65;;;5.75;;
44704;SDS011;30431;48.520;9.046;2023-04-25T02:52:51;10.60;;;5.80;;
44704;SDS011;30431;48.520;9.046;2023-04-25T02:55:24;14.13;;;7.75;;
44704;SDS011;30431;48.520;9.046;2023-04-25T02:57:53;20.88;;;10.27;;
44704;SDS011;30431;48.520;9.046;2023-04-25T03:00:34;11.00;;;6.82;;
44704;SDS011;30431;48.520;9.046;2023-04-25T03:03:01;9.45;;;5.57;;
44704;SDS011;30431;48.520;9.046;2023-04-25T03:05:31;12.32;;;6.30;;
44704;SDS011;30431;48.520;9.046;2023-04-25T03:08:00;9.20;;;5.07;;
44704;SDS011;30431;48.520;9.046;2023-04-25T03:10:28;8.30;;;4.55;;
44704;SDS011;30431;48.520;9.046;2023-04-25T03:13:02;8.48;;;5.65;;
44704;SDS011;30431;48.520;9.046;2023-04-25T03:15:29;8.70;;;5.35;;
44704;SDS011;30431;48.520;9.046;2023-04-25T03:17:57;12.98;;;7.57;;
44704;SDS011;30431;48.520;9.046;2023-04-25T03:20:24;10.55;;;7.15;;
44704;SDS011;30431;48.520;9.046;2023-04-25T03:22:51;11.77;;;6.93;;
44704;SDS011;30431;48.520;9.046;2023-04-25T03:25:23;8.13;;;5.07;;
44704;SDS011;30431;48.520;9.046;2023-04-25T03:27:52;9.10;;;4.85;;
44704;SDS011;30431;48.520;9.046;2023-04-25T03:30:22;7.22;;;3.92;;
44704;SDS011;30431;48.520;9.046;2023-04-25T03:32:49;7.82;;;3.83;;
44704;SDS011;30431;48.520;9.046;2023-04-25T03:37:46;21.73;;;12.02;;
44704;SDS011;30431;48.520;9.046;2023-04-25T03:40:18;13.27;;;7.53;;
44704;SDS011;30431;48.520;9.046;2023-04-25T03:43:06;11.80;;;6.93;;
44704;SDS011;30431;48.520;9.046;2023-04-25T03:45:34;10.38;;;5.75;;
44704;SDS011;30431;48.520;9.046;2023-04-25T03:48:01;10.65;;;5.97;;
44704;SDS011;30431;48.520;9.046;2023-04-25T03:50:32;8.13;;;4.97;;
44704;SDS011;30431;48.520;9.046;2023-04-25T03:52:59;8.10;;;4.40;;
44704;SDS011;30431;48.520;9.046;2023-04-25T03:55:29;18.75;;;9.75;;
44704;SDS011;30431;48.520;9.046;2023-04-25T03:57:57;18.52;;;9.13;;
44704;SDS011;30431;48.520;9.046;2023-04-25T04:00:27;17.13;;;6.90;;
44704;SDS011;30431;48.520;9.046;2023-04-25T04:05:22;7.10;;;4.70;;
44704;SDS011;30431;48.520;9.046;2023-04-25T04:07:53;9.68;;;4.75;;
44704;SDS011;30431;48.520;9.046;2023-04-25T04:10:23;9.65;;;4.22;;
44704;SDS011;30431;48.520;9.046;2023-04-25T04:15:17;8.20;;;3.97;;
44704;SDS011;30431;48.520;9.046;2023-04-25T04:17:49;10.50;;;3.90;;
44704;SDS011;30431;48.520;9.046;2023-04-25T04:20:17;7.75;;;4.43;;
44704;SDS011;30431;48.520;9.046;2023-04-25T04:22:44;7.00;;;4.15;;
44704;SDS011;30431;48.520;9.046;2023-04-25T04:25:15;5.35;;;4.05;;
44704;SDS011;30431;48.520;9.046;2023-04-25T04:28:17;6.82;;;3.78;;
44704;SDS011;30431;48.520;9.046;2023-04-25T04:30:52;8.60;;;4.10;;
44704;SDS011;30431;48.520;9.046;2023-04-25T04:33:19;6.85;;;3.83;;
44704;SDS011;30431;48.520;9.046;2023-04-25T04:35:53;7.68;;;3.65;;
44704;SDS011;30431;48.520;9.046;2023-04-25T04:38:24;7.40;;;4.10;;
44704;SDS011;30431;48.520;9.046;2023-04-25T04:40:54;12.02;;;4.45;;
44704;SDS011;30431;48.520;9.046;2023-04-25T04:43:45;10.38;;;4.20;;
44704;SDS011;30431;48.520;9.046;2023-04-25T04:46:41;6.67;;;4.13;;
44704;SDS011;30431;48.520;9.046;2023-04-25T04:49:29;6.07;;;4.13;;
44704;SDS011;30431;48.520;9.046;2023-04-25T04:52:05;7.45;;;4.38;;
44704;SDS011;30431;48.520;9.046;2023-04-25T04:54:44;7.47;;;3.85;;
44704;SDS011;30431;48.520;9.046;2023-04-25T04:57:21;10.18;;;3.63;;
44704;SDS011;30431;48.520;9.046;2023-04-25T05:02:57;8.13;;;4.15;;
44704;SDS011;30431;48.520;9.046;2023-04-25T05:05:47;7.78;;;4.40;;
44704;SDS011;30431;48.520;9.046;2023-04-25T05:08:34;11.07;;;5.57;;
44704;SDS011;30431;48.520;9.046;2023-04-25T05:11:13;10.23;;;6.18;;
44704;SDS011;30431;48.520;9.046;2023-04-25T05:14:03;16.75;;;4.57;;
44704;SDS011;30431;48.520;9.046;2023-04-25T05:16:43;10.23;;;5.28;;
44704;SDS011;30431;48.520;9.046;2023-04-25T05:19:24;7.03;;;4.35;;
44704;SDS011;30431;48.520;9.046;2023-04-25T05:22:13;9.75;;;3.97;;
44704;SDS011;30431;48.520;9.046;2023-04-25T05:24:55;8.77;;;4.30;;
44704;SDS011;30431;48.520;9.046;2023-04-25T05:27:35;8.90;;;3.58;;
44704;SDS011;30431;48.520;9.046;2023-04-25T05:30:14;6.45;;;3.25;;
44704;SDS011;30431;48.520;9.046;2023-04-25T05:33:14;6.43;;;3.75;;
44704;SDS011;30431;48.520;9.046;2023-04-25T05:35:44;6.57;;;3.65;;
44704;SDS011;30431;48.520;9.046;2023-04-25T05:38:12;8.52;;;3.70;;
44704;SDS011;30431;48.520;9.046;2023-04-25T05:41:03;6.43;;;3.42;;
44704;SDS011;30431;48.520;9.046;2023-04-25T05:44:02;6.63;;;3.58;;
44704;SDS011;30431;48.520;9.046;2023-04-25T05:46:36;8.00;;;3.88;;
44704;SDS011;30431;48.520;9.046;2023-04-25T05:49:29;9.65;;;5.55;;
44704;SDS011;30431;48.520;9.046;2023-04-25T05:52:25;9.82;;;4.90;;
44704;SDS011;30431;48.520;9.046;2023-04-25T05:57:30;6.03;;;3.47;;
44704;SDS011;30431;48.520;9.046;2023-04-25T05:59:58;11.10;;;5.50;;
44704;SDS011;30431;48.520;9.046;2023-04-25T06:02:38;8.85;;;4.28;;
44704;SDS011;30431;48.520;9.046;2023-04-25T06:05:06;7.10;;;4.18;;
44704;SDS011;30431;48.520;9.046;2023-04-25T06:07:34;5.78;;;2.88;;
44704;SDS011;30431;48.520;9.046;2023-04-25T06:10:02;7.43;;;3.20;;
44704;SDS011;30431;48.520;9.046;2023-04-25T06:12:32;5.68;;;3.25;;
44704;SDS011;30431;48.520;9.046;2023-04-25T06:15:00;5.28;;;2.78;;
44704;SDS011;30431;48.520;9.046;2023-04-25T06:17:38;8.27;;;3.50;;
44704;SDS011;30431;48.520;9.046;2023-04-25T06:20:06;12.13;;;5.13;;
44704;SDS011;30431;48.520;9.046;2023-04-25T06:22:37;4.95;;;2.70;;
44704;SDS011;30431;48.520;9.046;2023-04-25T06:25:04;6.35;;;2.83;;
44704;SDS011;30431;48.520;9.046;2023-04-25T06:27:32;7.72;;;3.80;;
44704;SDS011;30431;48.520;9.046;2023-04-25T06:30:00;5.97;;;3.50;;
44704;SDS011;30431;48.520;9.046;2023-04-25T06:32:31;5.00;;;2.78;;
44704;SDS011;30431;48.520;9.046;2023-04-25T06:35:00;5.78;;;2.95;;
44704;SDS011;30431;48.520;9.046;2023-04-25T06:37:27;4.20;;;2.40;;
44704;SDS011;30431;48.520;9.046;2023-04-25T06:39:55;5.68;;;2.72;;
44704;SDS011;30431;48.520;9.046;2023-04-25T06:42:25;4.70;;;2.33;;
44704;SDS011;30431;48.520;9.046;2023-04-25T06:44:58;6.13;;;2.72;;
44704;SDS011;30431;48.520;9.046;2023-04-25T06:47:27;6.05;;;2.42;;
44704;SDS011;30431;48.520;9.046;2023-04-25T06:49:58;9.77;;;3.15;;
44704;SDS011;30431;48.520;9.046;2023-04-25T06:52:26;6.80;;;2.72;;
44704;SDS011;30431;48.520;9.046;2023-04-25T06:54:53;8.43;;;2.40;;
44704;SDS011;30431;48.520;9.046;2023-04-25T06:57:55;5.82;;;2.80;;
44704;SDS011;30431;48.520;9.046;2023-04-25T07:00:51;3.30;;;2.38;;
44704;SDS011;30431;48.520;9.046;2023-04-25T07:03:21;6.13;;;2.72;;
44704;SDS011;30431;48.520;9.046;2023-04-25T07:05:49;2.63;;;2.10;;
44704;SDS011;30431;48.520;9.046;2023-04-25T07:08:25;3.55;;;2.08;;
44704;SDS011;30431;48.520;9.046;2023-04-25T07:10:52;6.32;;;2.58;;
44704;SDS011;30431;48.520;9.046;2023-04-25T07:13:19;5.47;;;2.70;;
44704;SDS011;30431;48.520;9.046;2023-04-25T07:15:48;6.72;;;2.55;;
44704;SDS011;30431;48.520;9.046;2023-04-25T07:18:22;3.67;;;2.53;;
44704;SDS011;30431;48.520;9.046;2023-04-25T07:20:50;4.88;;;2.83;;
44704;SDS011;30431;48.520;9.046;2023-04-25T07:23:21;6.05;;;2.40;;
44704;SDS011;30431;48.520;9.046;2023-04-25T07:25:51;6.85;;;4.00;;
44704;SDS011;30431;48.520;9.046;2023-04-25T07:28:24;5.95;;;3.20;;
44704;SDS011;30431;48.520;9.046;2023-04-25T07:30:51;6.03;;;3.15;;
44704;SDS011;30431;48.520;9.046;2023-04-25T07:33:20;8.82;;;4.03;;
44704;SDS011;30431;48.520;9.046;2023-04-25T07:35:52;7.82;;;4.85;;
44704;SDS011;30431;48.520;9.046;2023-04-25T07:38:20;10.27;;;4.50;;
44704;SDS011;30431;48.520;9.046;2023-04-25T07:40:49;8.63;;;3.95;;
44704;SDS011;30431;48.520;9.046;2023-04-25T07:43:20;11.25;;;5.05;;
44704;SDS011;30431;48.520;9.046;2023-04-25T07:45:53;7.00;;;3.50;;
44704;SDS011;30431;48.520;9.046;2023-04-25T07:48:23;10.07;;;3.60;;
44704;SDS011;30431;48.520;9.046;2023-04-25T07:50:52;7.68;;;3.13;;
44704;SDS011;30431;48.520;9.046;2023-04-25T07:53:19;7.03;;;3.40;;
44704;SDS011;30431;48.520;9.046;2023-04-25T07:55:57;9.43;;;5.38;;
44704;SDS011;30431;48.520;9.046;2023-04-25T07:58:27;11.70;;;5.28;;
44704;SDS011;30431;48.520;9.046;2023-04-25T08:00:58;14.43;;;7.47;;
44704;SDS011;30431;48.520;9.046;2023-04-25T08:03:42;6.10;;;3.78;;
44704;SDS011;30431;48.520;9.046;2023-04-25T08:06:17;4.95;;;2.90;;
44704;SDS011;30431;48.520;9.046;2023-04-25T08:09:02;6.25;;;3.38;;
44704;SDS011;30431;48.520;9.046;2023-04-25T08:11:36;9.07;;;3.55;;
44704;SDS011;30431;48.520;9.046;2023-04-25T08:14:07;10.68;;;5.22;;
44704;SDS011;30431;48.520;9.046;2023-04-25T08:16:35;9.32;;;4.78;;
44704;SDS011;30431;48.520;9.046;2023-04-25T08:19:02;4.13;;;2.65;;
44704;SDS011;30431;48.520;9.046;2023-04-25T08:21:30;8.35;;;3.38;;
44704;SDS011;30431;48.520;9.046;2023-04-25T08:24:00;5.28;;;3.00;;
44704;SDS011;30431;48.520;9.046;2023-04-25T08:26:34;5.32;;;3.08;;
44704;SDS011;30431;48.520;9.046;2023-04-25T08:29:04;6.25;;;3.60;;
44704;SDS011;30431;48.520;9.046;2023-04-25T08:31:36;5.57;;;3.67;;
44704;SDS011;30431;48.520;9.046;2023-04-25T08:34:04;4.72;;;2.83;;
44704;SDS011;30431;48.520;9.046;2023-04-25T08:36:42;6.18;;;3.03;;
44704;SDS011;30431;48.520;9.046;2023-04-25T08:39:32;4.30;;;2.80;;
44704;SDS011;30431;48.520;9.046;2023-04-25T08:42:28;7.32;;;3.33;;
44704;SDS011;30431;48.520;9.046;2023-04-25T08:45:00;5.20;;;3.28;;
44704;SDS011;30431;48.520;9.046;2023-04-25T08:47:35;7.60;;;3.17;;
44704;SDS011;30431;48.520;9.046;2023-04-25T08:50:05;4.65;;;3.22;;
44704;SDS011;30431;48.520;9.046;2023-04-25T08:52:40;5.10;;;3.45;;
44704;SDS011;30431;48.520;9.046;2023-04-25T08:55:12;5.82;;;3.42;;
44704;SDS011;30431;48.520;9.046;2023-04-25T08:57:41;4.72;;;2.90;;
44704;SDS011;30431;48.520;9.046;2023-04-25T09:00:11;3.78;;;2.70;;
44704;SDS011;30431;48.520;9.046;2023-04-25T09:02:46;4.32;;;2.95;;
44704;SDS011;30431;48.520;9.046;2023-04-25T09:05:19;3.92;;;2.55;;
44704;SDS011;30431;48.520;9.046;2023-04-25T09:07:50;4.95;;;2.90;;
44704;SDS011;30431;48.520;9.046;2023-04-25T09:10:17;3.92;;;2.70;;
44704;SDS011;30431;48.520;9.046;2023-04-25T09:13:01;6.60;;;2.85;;
44704;SDS011;30431;48.520;9.046;2023-04-25T09:15:32;4.35;;;3.20;;
44704;SDS011;30431;48.520;9.046;2023-04-25T09:18:09;4.30;;;2.50;;
44704;SDS011;30431;48.520;9.046;2023-04-25T09:20:42;4.18;;;2.50;;
44704;SDS011;30431;48.520;9.046;2023-04-25T09:23:29;4.18;;;2.53;;
44704;SDS011;30431;48.520;9.046;2023-04-25T09:25:59;3.30;;;2.30;;
44704;SDS011;30431;48.520;9.046;2023-04-25T09:28:28;3.28;;;2.42;;
44704;SDS011;30431;48.520;9.046;2023-04-25T09:31:00;4.75;;;3.03;;
44704;SDS011;30431;48.520;9.046;2023-04-25T09:33:36;5.05;;;3.95;;
44704;SDS011;30431;48.520;9.046;2023-04-25T09:36:06;7.25;;;4.25;;
44704;SDS011;30431;48.520;9.046;2023-04-25T09:39:12;10.88;;;6.25;;
44704;SDS011;30431;48.520;9.046;2023-04-25T09:41:53;8.68;;;5.35;;
44704;SDS011;30431;48.520;9.046;2023-04-25T09:44:24;6.85;;;3.90;;
44704;SDS011;30431;48.520;9.046;2023-04-25T09:46:53;7.40;;;4.22;;
44704;SDS011;30431;48.520;9.046;2023-04-25T09:49:25;6.70;;;3.97;;
44704;SDS011;30431;48.520;9.046;2023-04-25T09:52:03;6.68;;;4.22;;
44704;SDS011;30431;48.520;9.046;2023-04-25T09:54:37;4.35;;;3.10;;
44704;SDS011;30431;48.520;9.046;2023-04-25T09:57:11;4.43;;;3.10;;
44704;SDS011;30431;48.520;9.046;2023-04-25T09:59:44;3.60;;;2.53;;
44704;SDS011;30431;48.520;9.046;2023-04-25T10:02:12;4.75;;;2.67;;
44704;SDS011;30431;48.520;9.046;2023-04-25T10:04:45;3.05;;;2.17;;
44704;SDS011;30431;48.520;9.046;2023-04-25T10:07:26;3.13;;;2.00;;
44704;SDS011;30431;48.520;9.046;2023-04-25T10:10:01;2.20;;;1.60;;
44704;SDS011;30431;48.520;9.046;2023-04-25T10:12:30;2.17;;;1.70;;
44704;SDS011;30431;48.520;9.046;2023-04-25T10:14:59;3.90;;;2.13;;
44704;SDS011;30431;48.520;9.046;2023-04-25T10:17:28;1.67;;;1.50;;
44704;SDS011;30431;48.520;9.046;2023-04-25T10:20:01;1.70;;;1.50;;
44704;SDS011;30431;48.520;9.046;2023-04-25T10:22:38;2.25;;;1.75;;
44704;SDS011;30431;48.520;9.046;2023-04-25T10:25:08;3.38;;;1.92;;
44704;SDS011;30431;48.520;9.046;2023-04-25T10:27:36;2.88;;;1.98;;
44704;SDS011;30431;48.520;9.046;2023-04-25T10:30:09;3.83;;;1.88;;
44704;SDS011;30431;48.520;9.046;2023-04-25T10:32:43;4.67;;;2.10;;
44704;SDS011;30431;48.520;9.046;2023-04-25T10:35:29;1.77;;;1.42;;
44704;SDS011;30431;48.520;9.046;2023-04-25T10:38:10;1.52;;;1.40;;
44704;SDS011;30431;48.520;9.046;2023-04-25T10:40:39;2.50;;;1.50;;
44704;SDS011;30431;48.520;9.046;2023-04-25T10:43:33;1.80;;;1.50;;
44704;SDS011;30431;48.520;9.046;2023-04-25T10:45:56;1.38;;;1.27;;
44704;SDS011;30431;48.520;9.046;2023-04-25T10:51:06;2.22;;;1.60;;
44704;SDS011;30431;48.520;9.046;2023-04-25T10:53:37;2.17;;;1.60;;
44704;SDS011;30431;48.520;9.046;2023-04-25T10:58:43;4.05;;;1.80;;
44704;SDS011;30431;48.520;9.046;2023-04-25T11:01:12;1.58;;;1.33;;
44704;SDS011;30431;48.520;9.046;2023-04-25T11:03:41;4.18;;;1.80;;
44704;SDS011;30431;48.520;9.046;2023-04-25T11:06:14;2.25;;;1.60;;
44704;SDS011;30431;48.520;9.046;2023-04-25T11:08:50;1.65;;;1.38;;
44704;SDS011;30431;48.520;9.046;2023-04-25T11:11:18;2.03;;;1.40;;
44704;SDS011;30431;48.520;9.046;2023-04-25T11:13:48;1.77;;;1.30;;
44704;SDS011;30431;48.520;9.046;2023-04-25T11:16:16;1.20;;;1.10;;
44704;SDS011;30431;48.520;9.046;2023-04-25T11:18:56;1.33;;;1.23;;
44704;SDS011;30431;48.520;9.046;2023-04-25T11:21:27;1.40;;;1.30;;
44704;SDS011;30431;48.520;9.046;2023-04-25T11:23:56;1.50;;;1.40;;
44704;SDS011;30431;48.520;9.046;2023-04-25T11:26:24;2.65;;;1.70;;
44704;SDS011;30431;48.520;9.046;2023-04-25T11:28:55;3.88;;;2.25;;
44704;SDS011;30431;48.520;9.046;2023-04-25T11:31:25;4.78;;;2.78;;
44704;SDS011;30431;48.520;9.046;2023-04-25T11:33:53;1.92;;;1.60;;
44704;SDS011;30431;48.520;9.046;2023-04-25T11:36:22;2.38;;;1.40;;
44704;SDS011;30431;48.520;9.046;2023-04-25T11:38:53;2.28;;;1.60;;
44704;SDS011;30431;48.520;9.046;2023-04-25T11:41:24;5.60;;;2.83;;
44704;SDS011;30431;48.520;9.046;2023-04-25T11:43:54;1.98;;;1.23;;
44704;SDS011;30431;48.520;9.046;2023-04-25T11:46:22;1.52;;;1.38;;
44704;SDS011;30431;48.520;9.046;2023-04-25T11:48:49;1.50;;;1.40;;
44704;SDS011;30431;48.520;9.046;2023-04-25T11:51:18;1.27;;;1.17;;
44704;SDS011;30431;48.520;9.046;2023-04-25T11:53:47;1.40;;;1.30;;
44704;SDS011;30431;48.520;9.046;2023-04-25T11:56:16;1.58;;;1.33;;
44704;SDS011;30431;48.520;9.046;2023-04-25T12:04:13;1.48;;;1.25;;
44704;SDS011;30431;48.520;9.046;2023-04-25T12:06:46;1.58;;;1.30;;
44704;SDS011;30431;48.520;9.046;2023-04-25T12:09:16;2.25;;;1.20;;
44704;SDS011;30431;48.520;9.046;2023-04-25T12:11:53;1.92;;;1.60;;
44704;SDS011;30431;48.520;9.046;2023-04-25T12:14:22;2.67;;;1.30;;
44704;SDS011;30431;48.520;9.046;2023-04-25T12:16:54;1.27;;;1.17;;
44704;SDS011;30431;48.520;9.046;2023-04-25T12:19:26;1.10;;;1.10;;
44704;SDS011;30431;48.520;9.046;2023-04-25T12:21:57;1.10;;;1.05;;
44704;SDS011;30431;48.520;9.046;2023-04-25T12:24:26;2.45;;;1.20;;
44704;SDS011;30431;48.520;9.046;2023-04-25T12:27:01;1.65;;;1.10;;
44704;SDS011;30431;48.520;9.046;2023-04-25T12:29:33;1.67;;;1.10;;
44704;SDS011;30431;48.520;9.046;2023-04-25T12:32:15;3.72;;;2.30;;
44704;SDS011;30431;48.520;9.046;2023-04-25T12:34:43;1.45;;;1.35;;
44704;SDS011;30431;48.520;9.046;2023-04-25T12:37:10;1.83;;;1.33;;
44704;SDS011;30431;48.520;9.046;2023-04-25T12:39:38;2.58;;;1.55;;
44704;SDS011;30431;48.520;9.046;2023-04-25T12:44:35;3.70;;;2.40;;
44704;SDS011;30431;48.520;9.046;2023-04-25T12:47:05;1.88;;;1.50;;
44704;SDS011;30431;48.520;9.046;2023-04-25T12:49:32;1.40;;;1.30;;
44704;SDS011;30431;48.520;9.046;2023-04-25T12:52:03;1.30;;;1.20;;
44704;SDS011;30431;48.520;9.046;2023-04-25T12:54:30;1.30;;;1.20;;
44704;SDS011;30431;48.520;9.046;2023-04-25T12:57:02;1.55;;;1.42;;
44704;SDS011;30431;48.520;9.046;2023-04-25T12:59:29;1.38;;;1.27;;
44704;SDS011;30431;48.520;9.046;2023-04-25T13:01:58;1.30;;;1.10;;
44704;SDS011;30431;48.520;9.046;2023-04-25T13:04:25;1.50;;;1.33;;
44704;SDS011;30431;48.520;9.046;2023-04-25T13:06:57;1.40;;;1.30;;
44704;SDS011;30431;48.520;9.046;2023-04-25T13:09:27;1.95;;;1.40;;
44704;SDS011;30431;48.520;9.046;2023-04-25T13:11:56;1.95;;;1.70;;
44704;SDS011;30431;48.520;9.046;2023-04-25T13:14:24;2.15;;;1.60;;
44704;SDS011;30431;48.520;9.046;2023-04-25T13:16:54;4.50;;;1.60;;
44704;SDS011;30431;48.520;9.046;2023-04-25T13:19:21;2.75;;;1.70;;
44704;SDS011;30431;48.520;9.046;2023-04-25T13:24:18;2.00;;;1.80;;
44704;SDS011;30431;48.520;9.046;2023-04-25T13:26:45;2.67;;;1.98;;
44704;SDS011;30431;48.520;9.046;2023-04-25T13:29:12;2.50;;;1.80;;
44704;SDS011;30431;48.520;9.046;2023-04-25T13:31:43;2.33;;;2.13;;
44704;SDS011;30431;48.520;9.046;2023-04-25T13:34:10;3.22;;;1.90;;
44704;SDS011;30431;48.520;9.046;2023-04-25T13:36:38;16.85;;;12.00;;
44704;SDS011;30431;48.520;9.046;2023-04-25T13:39:06;3.97;;;2.70;;
44704;SDS011;30431;48.520;9.046;2023-04-25T13:41:33;3.28;;;2.13;;
44704;SDS011;30431;48.520;9.046;2023-04-25T13:44:00;5.20;;;2.88;;
44704;SDS011;30431;48.520;9.046;2023-04-25T13:46:29;3.58;;;2.70;;
44704;SDS011;30431;48.520;9.046;2023-04-25T13:49:14;6.47;;;3.72;;
44704;SDS011;30431;48.520;9.046;2023-04-25T13:51:44;4.72;;;2.95;;
44704;SDS011;30431;48.520;9.046;2023-04-25T13:54:11;6.30;;;2.80;;
44704;SDS011;30431;48.520;9.046;2023-04-25T13:56:42;3.65;;;2.75;;
44704;SDS011;30431;48.520;9.046;2023-04-25T13:59:09;3.92;;;3.03;;
44704;SDS011;30431;48.520;9.046;2023-04-25T14:01:36;3.63;;;2.72;;
44704;SDS011;30431;48.520;9.046;2023-04-25T14:04:04;4.35;;;3.13;;
44704;SDS011;30431;48.520;9.046;2023-04-25T14:06:32;3.95;;;3.10;;
44704;SDS011;30431;48.520;9.046;2023-04-25T14:09:04;4.18;;;2.90;;
44704;SDS011;30431;48.520;9.046;2023-04-25T14:11:35;5.03;;;3.20;;
44704;SDS011;30431;48.520;9.046;2023-04-25T14:14:03;4.82;;;3.28;;
44704;SDS011;30431;48.520;9.046;2023-04-25T14:16:30;7.32;;;3.30;;
44704;SDS011;30431;48.520;9.046;2023-04-25T14:19:00;5.75;;;3.25;;
44704;SDS011;30431;48.520;9.046;2023-04-25T14:21:32;4.43;;;3.30;;
44704;SDS011;30431;48.520;9.046;2023-04-25T14:23:59;5.05;;;3.38;;
44704;SDS011;30431;48.520;9.046;2023-04-25T14:26:26;5.50;;;3.70;;
44704;SDS011;30431;48.520;9.046;2023-04-25T14:28:53;5.00;;;3.47;;
44704;SDS011;30431;48.520;9.046;2023-04-25T14:31:20;6.50;;;4.07;;
44704;SDS011;30431;48.520;9.046;2023-04-25T14:33:49;6.97;;;4.00;;
44704;SDS011;30431;48.520;9.046;2023-04-25T14:36:20;5.25;;;3.90;;
44704;SDS011;30431;48.520;9.046;2023-04-25T14:41:16;6.00;;;4.28;;
44704;SDS011;30431;48.520;9.046;2023-04-25T14:43:43;6.30;;;3.70;;
44704;SDS011;30431;48.520;9.046;2023-04-25T14:46:15;6.15;;;3.40;;
44704;SDS011;30431;48.520;9.046;2023-04-25T14:48:45;4.75;;;3.55;;
44704;SDS011;30431;48.520;9.046;2023-04-25T14:51:15;4.57;;;3.20;;
44704;SDS011;30431;48.520;9.046;2023-04-25T14:53:42;4.68;;;3.28;;
44704;SDS011;30431;48.520;9.046;2023-04-25T14:56:11;5.28;;;3.30;;
44704;SDS011;30431;48.520;9.046;2023-04-25T14:58:39;8.20;;;3.60;;
44704;SDS011;30431;48.520;9.046;2023-04-25T15:01:06;8.23;;;3.63;;
44704;SDS011;30431;48.520;9.046;2023-04-25T15:03:34;6.82;;;4.00;;
44704;SDS011;30431;48.520;9.046;2023-04-25T15:08:28;6.10;;;4.43;;
44704;SDS011;30431;48.520;9.046;2023-04-25T15:10:55;6.40;;;4.75;;
44704;SDS011;30431;48.520;9.046;2023-04-25T15:13:28;8.20;;;4.43;;
44704;SDS011;30431;48.520;9.046;2023-04-25T15:15:55;7.78;;;4.78;;
44704;SDS011;30431;48.520;9.046;2023-04-25T15:18:24;5.60;;;4.07;;
44704;SDS011;30431;48.520;9.046;2023-04-25T15:20:52;8.07;;;4.40;;
44704;SDS011;30431;48.520;9.046;2023-04-25T15:23:19;9.23;;;6.25;;
44704;SDS011;30431;48.520;9.046;2023-04-25T15:25:49;6.20;;;4.57;;
44704;SDS011;30431;48.520;9.046;2023-04-25T15:28:16;6.28;;;3.80;;
44704;SDS011;30431;48.520;9.046;2023-04-25T15:30:43;6.65;;;4.60;;
44704;SDS011;30431;48.520;9.046;2023-04-25T15:33:11;5.18;;;3.75;;
44704;SDS011;30431;48.520;9.046;2023-04-25T15:35:39;8.00;;;4.20;;
44704;SDS011;30431;48.520;9.046;2023-04-25T15:38:09;6.00;;;4.15;;
44704;SDS011;30431;48.520;9.046;2023-04-25T15:40:37;6.38;;;4.40;;
44704;SDS011;30431;48.520;9.046;2023-04-25T15:43:04;4.78;;;3.35;;
44704;SDS011;30431;48.520;9.046;2023-04-25T15:45:31;4.70;;;3.58;;
44704;SDS011;30431;48.520;9.046;2023-04-25T15:47:58;5.15;;;3.38;;
44704;SDS011;30431;48.520;9.046;2023-04-25T15:50:27;6.07;;;3.75;;
44704;SDS011;30431;48.520;9.046;2023-04-25T15:52:54;5.05;;;3.78;;